createdAt,value
2019-05-03T00:02:38.723Z,73.80
2019-05-03T00:05:26.557Z,74.00
2019-05-03T00:08:02.254Z,74.30
2019-05-03T00:10:31.774Z,74.60
2019-05-03T00:13:01.892Z,74.70
2019-05-03T00:15:42.817Z,74.70
2019-05-03T00:18:11.968Z,74.60
2019-05-03T00:20:42.264Z,74.70
2019-05-03T00:23:12.813Z,74.30
2019-05-03T00:25:41.813Z,74.30
2019-05-03T00:28:10.828Z,74.60
2019-05-03T00:30:39.454Z,74.70
2019-05-03T00:33:08.783Z,74.80
2019-05-03T00:35:55.715Z,74.90
2019-05-03T00:38:24.345Z,74.90
2019-05-03T00:40:52.989Z,75.20
2019-05-03T00:43:22.278Z,75.20
2019-05-03T00:45:51.695Z,75.40
2019-05-03T00:48:21.982Z,75.50
2019-05-03T00:50:51.774Z,75.30
2019-05-03T00:53:22.227Z,75.30
2019-05-03T00:55:52.475Z,75.90
2019-05-03T00:58:22.384Z,75.90
2019-05-03T01:00:52.465Z,75.80
2019-05-03T01:03:21.909Z,76.00
2019-05-03T01:05:52.935Z,76.50
2019-05-03T01:08:22.188Z,76.50
2019-05-03T01:10:51.668Z,75.80
2019-05-03T01:13:21.960Z,75.60
2019-05-03T01:16:05.680Z,75.30
2019-05-03T01:18:34.565Z,75.40
2019-05-03T01:21:04.821Z,75.00
2019-05-03T01:23:35.379Z,75.10
2019-05-03T01:26:04.324Z,75.30
2019-05-03T01:28:33.018Z,75.60
2019-05-03T01:31:02.657Z,75.40
2019-05-03T01:33:32.145Z,75.80
2019-05-03T01:36:02.934Z,75.80
2019-05-03T01:38:32.019Z,75.90
2019-05-03T01:41:01.726Z,75.50
2019-05-03T01:43:31.783Z,75.60
2019-05-03T01:46:02.754Z,75.90
2019-05-03T01:49:08.347Z,76.10
2019-05-03T01:52:05.303Z,75.50
2019-05-03T01:54:34.255Z,75.80
2019-05-03T01:57:03.435Z,75.60
2019-05-03T01:59:32.244Z,75.40
2019-05-03T02:02:20.443Z,75.00
2019-05-03T02:05:08.860Z,74.70
2019-05-03T02:07:37.588Z,74.10
2019-05-03T02:10:06.592Z,73.40
2019-05-03T02:12:35.315Z,73.30
2019-05-03T02:15:04.925Z,73.10
2019-05-03T02:17:33.587Z,72.90
2019-05-03T02:20:02.521Z,72.80
2019-05-03T02:22:32.786Z,73.00
2019-05-03T02:25:04.785Z,73.10
2019-05-03T02:27:33.236Z,73.20
2019-05-03T02:30:03.015Z,73.20
2019-05-03T02:32:33.191Z,73.30
2019-05-03T02:35:02.835Z,73.50
2019-05-03T02:37:33.031Z,73.70
2019-05-03T02:40:04.168Z,74.00
2019-05-03T02:42:35.604Z,73.90
2019-05-03T02:45:06.065Z,73.80
2019-05-03T02:47:55.433Z,74.20
2019-05-03T02:50:26.036Z,74.20
2019-05-03T02:52:55.305Z,74.70
2019-05-03T02:55:27.826Z,74.80
2019-05-03T02:57:56.873Z,74.30
2019-05-03T03:00:56.105Z,74.80
2019-05-03T03:03:25.906Z,74.80
2019-05-03T03:05:57.253Z,74.80
2019-05-03T03:08:32.998Z,74.80
2019-05-03T03:11:02.455Z,74.70
2019-05-03T03:13:31.850Z,74.70
2019-05-03T03:16:06.814Z,74.90
2019-05-03T03:18:37.521Z,74.80
2019-05-03T03:21:11.888Z,74.80
2019-05-03T03:24:12.730Z,74.40
2019-05-03T03:26:46.891Z,74.20
2019-05-03T03:29:16.323Z,74.40
2019-05-03T03:32:19.206Z,74.40
2019-05-03T03:35:12.117Z,74.40
2019-05-03T03:37:40.413Z,74.30
2019-05-03T03:40:09.145Z,74.60
2019-05-03T03:42:41.366Z,74.70
2019-05-03T03:45:10.372Z,75.30
2019-05-03T03:47:39.394Z,75.60
2019-05-03T03:50:09.057Z,75.80
2019-05-03T03:52:40.585Z,75.90
2019-05-03T03:55:10.010Z,76.20
2019-05-03T03:57:39.172Z,76.30
2019-05-03T04:00:09.127Z,76.50
2019-05-03T04:02:39.170Z,76.70
2019-05-03T04:05:08.146Z,77.00
2019-05-03T04:07:37.467Z,77.20
2019-05-03T04:10:07.411Z,77.40
2019-05-03T04:12:37.085Z,77.80
2019-05-03T04:15:28.682Z,78.00
2019-05-03T04:18:26.062Z,78.40
2019-05-03T04:20:55.940Z,79.00
2019-05-03T04:23:26.428Z,79.90
2019-05-03T04:25:56.679Z,80.70
2019-05-03T04:28:27.686Z,81.00
2019-05-03T04:30:56.604Z,81.40
2019-05-03T04:33:26.960Z,81.90
2019-05-03T04:35:55.874Z,82.70
2019-05-03T04:38:25.564Z,82.90
2019-05-03T04:40:56.116Z,83.60
2019-05-03T04:43:26.460Z,83.70
2019-05-03T04:46:06.873Z,84.50
2019-05-03T04:48:35.975Z,85.90
2019-05-03T04:51:05.873Z,85.00
2019-05-03T04:53:36.626Z,85.50
2019-05-03T04:56:05.724Z,85.90
2019-05-03T04:58:36.485Z,86.30
2019-05-03T05:01:06.536Z,86.10
2019-05-03T05:03:36.138Z,85.50
2019-05-03T05:06:06.248Z,85.50
2019-05-03T05:08:35.844Z,85.40
2019-05-03T05:11:05.863Z,85.40
2019-05-03T05:13:35.744Z,84.80
2019-05-03T05:16:05.907Z,83.90
2019-05-03T05:18:40.451Z,84.30
2019-05-03T05:21:14.994Z,83.60
2019-05-03T05:24:01.236Z,83.10
2019-05-03T05:26:39.281Z,82.90
2019-05-03T05:29:12.155Z,82.40
2019-05-03T05:31:41.025Z,82.60
2019-05-03T05:34:10.061Z,82.90
2019-05-03T05:36:38.747Z,82.80
2019-05-03T05:39:07.950Z,83.20
2019-05-03T05:41:36.613Z,83.60
2019-05-03T05:44:05.480Z,83.00
2019-05-03T05:46:56.803Z,82.50
2019-05-03T05:49:44.358Z,82.50
2019-05-03T05:52:15.485Z,82.00
2019-05-03T05:54:48.168Z,82.30
2019-05-03T05:57:36.762Z,81.80
2019-05-03T06:00:15.204Z,80.70
2019-05-03T06:02:44.718Z,80.30
2019-05-03T06:05:14.814Z,77.70
2019-05-03T06:07:54.619Z,78.00
2019-05-03T06:10:29.157Z,75.00
2019-05-03T06:13:19.801Z,75.40
2019-05-03T06:15:54.809Z,75.80
2019-05-03T06:18:30.059Z,74.90
2019-05-03T06:21:10.270Z,73.50
2019-05-03T06:23:45.142Z,73.90
2019-05-03T06:26:31.957Z,74.40
2019-05-03T06:29:04.634Z,74.30
2019-05-03T06:32:02.239Z,74.20
2019-05-03T06:34:30.929Z,72.00
2019-05-03T06:37:04.369Z,73.10
2019-05-03T06:39:35.061Z,72.00
2019-05-03T06:42:05.061Z,70.60
2019-05-03T06:44:34.922Z,70.10
2019-05-03T06:47:08.705Z,70.00
2019-05-03T06:49:34.646Z,70.40
2019-05-03T06:52:05.798Z,70.60
2019-05-03T06:54:35.376Z,70.60
2019-05-03T06:57:09.496Z,70.30
2019-05-03T06:59:57.677Z,69.70
2019-05-03T07:02:35.565Z,70.10
2019-05-03T07:05:06.763Z,70.20
2019-05-03T07:07:49.738Z,70.50
2019-05-03T07:10:30.966Z,70.70
2019-05-03T07:13:04.982Z,70.50
2019-05-03T07:15:35.113Z,70.40
2019-05-03T07:18:05.737Z,71.40
2019-05-03T07:20:49.311Z,70.00
2019-05-03T07:23:18.983Z,71.00
2019-05-03T07:25:47.331Z,71.90
2019-05-03T07:28:15.693Z,71.20
2019-05-03T07:30:46.525Z,71.10
2019-05-03T07:33:22.646Z,71.10
2019-05-03T07:35:51.554Z,70.90
2019-05-03T07:38:20.893Z,70.50
2019-05-03T07:40:50.154Z,69.80
2019-05-03T07:43:19.042Z,69.90
2019-05-03T07:45:47.873Z,70.10
2019-05-03T07:48:16.405Z,70.70
2019-05-03T07:50:44.893Z,70.60
2019-05-03T07:53:15.051Z,70.00
2019-05-03T07:56:06.646Z,69.80
2019-05-03T07:58:35.346Z,69.10
2019-05-03T08:01:09.965Z,69.20
2019-05-03T08:03:39.191Z,68.90
2019-05-03T08:06:08.231Z,68.70
2019-05-03T08:08:36.747Z,68.50
2019-05-03T08:11:05.495Z,68.70
2019-05-03T08:13:35.553Z,69.30
2019-05-03T08:16:05.939Z,69.00
2019-05-03T08:18:35.690Z,69.60
2019-05-03T08:21:08.191Z,68.00
2019-05-03T08:23:40.991Z,68.30
2019-05-03T08:26:15.188Z,69.40
2019-05-03T08:28:47.481Z,67.80
2019-05-03T08:31:37.750Z,67.40
2019-05-03T08:34:18.363Z,68.30
2019-05-03T08:37:07.291Z,68.20
2019-05-03T08:39:37.235Z,68.10
2019-05-03T08:42:14.980Z,68.90
2019-05-03T08:44:45.321Z,68.30
2019-05-03T08:47:17.860Z,68.40
2019-05-03T08:49:50.442Z,69.30
2019-05-03T08:52:24.831Z,68.90
2019-05-03T08:54:54.989Z,69.40
2019-05-03T08:57:27.525Z,69.00
2019-05-03T08:59:58.270Z,67.80
2019-05-03T09:02:26.842Z,68.20
2019-05-03T09:04:56.019Z,68.40
2019-05-03T09:07:25.444Z,68.00
2019-05-03T09:09:59.260Z,68.00
2019-05-03T09:12:48.113Z,67.60
2019-05-03T09:15:16.905Z,67.80
2019-05-03T09:17:45.240Z,67.10
2019-05-03T09:20:15.573Z,65.30
2019-05-03T09:22:45.291Z,65.30
2019-05-03T09:25:16.407Z,64.50
2019-05-03T09:27:45.211Z,64.70
2019-05-03T09:30:14.687Z,64.00
2019-05-03T09:32:45.078Z,63.30
2019-05-03T09:35:29.078Z,62.10
2019-05-03T09:37:45.512Z,59.50
2019-05-03T09:40:15.060Z,58.60
2019-05-03T09:42:44.504Z,59.00
2019-05-03T09:45:15.369Z,59.60
2019-05-03T09:47:44.854Z,57.20
2019-05-03T09:50:15.612Z,55.40
2019-05-03T09:52:46.972Z,50.60
2019-05-03T09:55:20.846Z,49.40
2019-05-03T09:57:49.442Z,45.50
2019-05-03T10:00:19.151Z,46.60
2019-05-03T10:02:47.739Z,46.60
2019-05-03T10:05:16.818Z,45.50
2019-05-03T10:07:45.747Z,45.00
2019-05-03T10:10:15.388Z,42.40
2019-05-03T10:12:44.161Z,40.70
2019-05-03T10:15:17.469Z,39.20
2019-05-03T10:17:59.533Z,38.70
2019-05-03T10:20:28.175Z,36.60
2019-05-03T10:23:02.442Z,36.20
2019-05-03T10:25:32.357Z,36.00
2019-05-03T10:28:02.171Z,37.20
2019-05-03T10:30:35.464Z,37.20
2019-05-03T10:33:12.149Z,37.00
2019-05-03T10:35:45.153Z,35.00
2019-05-03T10:38:15.124Z,36.60
2019-05-03T10:40:45.251Z,34.40
2019-05-03T10:43:14.127Z,32.40
2019-05-03T10:45:44.886Z,35.10
2019-05-03T10:48:15.461Z,35.70
2019-05-03T10:50:43.855Z,35.00
2019-05-03T10:53:34.806Z,36.30
2019-05-03T10:56:32.875Z,37.60
2019-05-03T10:59:03.522Z,37.40
2019-05-03T11:01:45.096Z,32.50
2019-05-03T11:04:14.789Z,31.70
2019-05-03T11:06:45.524Z,31.60
2019-05-03T11:09:15.225Z,31.60
2019-05-03T11:11:45.375Z,29.60
2019-05-03T11:14:14.972Z,29.10
2019-05-03T11:16:45.763Z,28.30
2019-05-03T11:19:14.605Z,27.60
2019-05-03T11:21:45.296Z,28.10
2019-05-03T11:24:14.774Z,27.70
2019-05-03T11:26:45.990Z,27.50
2019-05-03T11:29:15.864Z,26.90
2019-05-03T11:31:55.833Z,27.00
2019-05-03T11:34:30.102Z,27.50
2019-05-03T11:37:25.745Z,26.90
2019-05-03T11:39:55.831Z,26.70
2019-05-03T11:42:24.576Z,25.90
2019-05-03T11:44:53.396Z,26.00
2019-05-03T11:47:24.822Z,26.80
2019-05-03T11:49:54.581Z,28.10
2019-05-03T11:52:22.414Z,28.50
2019-05-03T11:54:50.942Z,28.90
2019-05-03T11:57:26.275Z,29.70
2019-05-03T11:59:55.223Z,30.20
2019-05-03T12:03:01.688Z,29.70
2019-05-03T12:05:30.786Z,30.70
2019-05-03T12:07:59.520Z,29.40
2019-05-03T12:10:48.436Z,29.10
2019-05-03T12:13:05.046Z,30.10
2019-05-03T12:15:35.200Z,30.00
2019-05-03T12:18:07.218Z,30.00
2019-05-03T12:20:39.906Z,29.20
2019-05-03T12:23:10.189Z,29.50
2019-05-03T12:25:40.609Z,30.50
2019-05-03T12:28:11.125Z,30.90
2019-05-03T12:30:39.986Z,31.10
2019-05-03T12:33:08.795Z,30.70
2019-05-03T12:35:38.308Z,29.30
2019-05-03T12:38:08.839Z,28.50
2019-05-03T12:40:37.363Z,28.60
2019-05-03T12:43:06.353Z,27.70
2019-05-03T12:45:35.527Z,27.90
2019-05-03T12:48:05.192Z,28.40
2019-05-03T12:50:34.714Z,29.60
2019-05-03T12:53:04.874Z,28.90
2019-05-03T12:55:35.675Z,29.90
2019-05-03T12:58:06.439Z,28.70
2019-05-03T13:01:04.936Z,27.70
2019-05-03T13:03:55.776Z,27.10
2019-05-03T13:06:25.483Z,27.20
2019-05-03T13:08:54.785Z,27.30
2019-05-03T13:11:25.158Z,26.50
2019-05-03T13:13:55.643Z,26.80
2019-05-03T13:16:24.728Z,26.50
2019-05-03T13:18:55.306Z,26.70
2019-05-03T13:21:25.286Z,27.20
2019-05-03T13:23:54.918Z,27.80
2019-05-03T13:26:25.431Z,28.80
2019-05-03T13:28:55.438Z,29.70
2019-05-03T13:31:25.066Z,30.00
2019-05-03T13:33:54.950Z,30.10
2019-05-03T13:36:25.375Z,29.80
2019-05-03T13:39:11.525Z,30.20
2019-05-03T13:41:26.760Z,29.00
2019-05-03T13:43:55.313Z,28.30
2019-05-03T13:46:24.666Z,29.20
2019-05-03T13:48:55.307Z,30.10
2019-05-03T13:51:25.349Z,30.60
2019-05-03T13:53:55.113Z,30.60
2019-05-03T13:56:24.679Z,30.00
2019-05-03T13:58:55.035Z,30.00
2019-05-03T14:01:25.177Z,30.00
2019-05-03T14:03:54.585Z,30.70
2019-05-03T14:06:24.564Z,31.60
2019-05-03T14:08:54.816Z,31.10
2019-05-03T14:11:25.355Z,31.00
2019-05-03T14:13:55.199Z,30.20
2019-05-03T14:16:24.032Z,28.60
2019-05-03T14:18:56.362Z,28.90
2019-05-03T14:21:35.339Z,28.90
2019-05-03T14:24:09.256Z,29.60
2019-05-03T14:26:38.899Z,30.30
2019-05-03T14:29:08.398Z,30.90
2019-05-03T14:31:37.769Z,29.40
2019-05-03T14:34:06.682Z,29.80
2019-05-03T14:36:36.444Z,29.70
2019-05-03T14:39:10.222Z,30.00
2019-05-03T14:41:39.151Z,29.80
2019-05-03T14:44:07.632Z,29.70
2019-05-03T14:46:36.392Z,30.00
2019-05-03T14:49:05.755Z,29.40
2019-05-03T14:51:35.001Z,28.60
2019-05-03T14:54:05.635Z,28.10
2019-05-03T14:56:45.948Z,26.70
2019-05-03T14:59:22.950Z,26.60
2019-05-03T15:02:01.699Z,27.70
2019-05-03T15:04:30.086Z,28.80
2019-05-03T15:06:58.838Z,29.20
2019-05-03T15:09:27.429Z,29.70
2019-05-03T15:11:56.179Z,30.20
2019-05-03T15:14:25.165Z,30.20
2019-05-03T15:16:55.609Z,30.20
2019-05-03T15:19:25.354Z,30.10
2019-05-03T15:21:54.767Z,29.80
2019-05-03T15:24:25.222Z,29.40
2019-05-03T15:26:55.387Z,29.60
2019-05-03T15:29:25.842Z,29.80
2019-05-03T15:31:55.241Z,29.70
2019-05-03T15:34:23.832Z,29.80
2019-05-03T15:36:54.696Z,30.00
2019-05-03T15:39:25.564Z,30.00
2019-05-03T15:41:54.452Z,29.40
2019-05-03T15:44:41.076Z,29.10
2019-05-03T15:47:17.420Z,29.00
2019-05-03T15:49:46.053Z,30.00
2019-05-03T15:52:15.273Z,30.30
2019-05-03T15:54:44.541Z,29.50
2019-05-03T15:57:14.448Z,28.80
2019-05-03T15:59:44.496Z,29.70
2019-05-03T16:02:15.197Z,29.60
2019-05-03T16:04:44.856Z,29.80
2019-05-03T16:07:14.423Z,30.00
2019-05-03T16:09:44.496Z,30.50
2019-05-03T16:12:14.510Z,30.90
2019-05-03T16:14:44.547Z,30.90
2019-05-03T16:17:14.726Z,30.70
2019-05-03T16:19:47.378Z,30.70
2019-05-03T16:22:14.463Z,30.40
2019-05-03T16:24:44.784Z,30.80
2019-05-03T16:27:47.922Z,31.40
2019-05-03T16:30:56.065Z,32.00
2019-05-03T16:33:28.024Z,31.90
2019-05-03T16:35:55.033Z,31.20
2019-05-03T16:38:24.850Z,31.40
2019-05-03T16:40:55.364Z,31.80
2019-05-03T16:43:25.680Z,32.30
2019-05-03T16:45:55.227Z,32.60
2019-05-03T16:48:24.726Z,32.80
2019-05-03T16:50:53.482Z,33.00
2019-05-03T16:53:21.826Z,33.50
2019-05-03T16:55:50.257Z,33.70
2019-05-03T16:58:18.924Z,33.70
2019-05-03T17:00:47.661Z,34.20
2019-05-03T17:03:20.626Z,33.80
2019-05-03T17:06:07.164Z,33.70
2019-05-03T17:08:45.238Z,33.20
2019-05-03T17:11:15.883Z,33.20
2019-05-03T17:13:47.607Z,33.30
2019-05-03T17:16:15.098Z,33.40
2019-05-03T17:18:44.641Z,33.60
2019-05-03T17:21:16.011Z,33.70
2019-05-03T17:23:44.659Z,33.40
2019-05-03T17:26:14.978Z,33.60
2019-05-03T17:28:44.843Z,34.10
2019-05-03T17:31:15.214Z,34.30
2019-05-03T17:33:52.325Z,34.60
2019-05-03T17:36:15.317Z,34.60
2019-05-03T17:38:46.407Z,35.10
2019-05-03T17:41:39.309Z,35.20
2019-05-03T17:44:14.418Z,35.30
2019-05-03T17:46:42.999Z,35.50
2019-05-03T17:49:12.196Z,35.30
2019-05-03T17:51:52.949Z,35.30
2019-05-03T17:54:58.373Z,35.70
2019-05-03T17:57:44.573Z,36.00
2019-05-03T18:00:34.958Z,36.20
2019-05-03T18:03:05.892Z,36.40
2019-05-03T18:05:40.447Z,36.60
2019-05-03T18:08:29.076Z,36.70
2019-05-03T18:11:19.802Z,37.00
2019-05-03T18:13:49.230Z,36.80
2019-05-03T18:16:21.365Z,37.30
2019-05-03T18:18:49.752Z,37.30
2019-05-03T18:21:18.705Z,37.20
2019-05-03T18:23:47.418Z,37.50
2019-05-03T18:26:15.951Z,37.40
2019-05-03T18:28:44.768Z,37.50
2019-05-03T18:31:14.630Z,37.80
2019-05-03T18:33:44.324Z,37.60
2019-05-03T18:36:14.748Z,37.40
2019-05-03T18:38:44.621Z,38.50
2019-05-03T18:41:13.985Z,37.70
2019-05-03T18:44:02.560Z,38.00
2019-05-03T18:46:34.823Z,38.20
2019-05-03T18:49:04.506Z,38.40
2019-05-03T18:51:34.368Z,38.50
2019-05-03T18:54:05.401Z,39.10
2019-05-03T18:56:34.682Z,39.40
2019-05-03T18:59:05.162Z,39.40
2019-05-03T19:01:34.743Z,39.30
2019-05-03T19:04:34.121Z,39.60
2019-05-03T19:07:04.288Z,40.00
2019-05-03T19:09:43.757Z,40.60
2019-05-03T19:12:31.881Z,41.40
2019-05-03T19:15:01.057Z,41.10
2019-05-03T19:17:51.684Z,41.30
2019-05-03T19:20:20.286Z,41.50
2019-05-03T19:22:48.849Z,41.60
2019-05-03T19:25:17.629Z,41.80
2019-05-03T19:27:46.227Z,42.20
2019-05-03T19:30:16.459Z,42.40
2019-05-03T19:32:45.459Z,42.70
2019-05-03T19:35:15.710Z,43.00
2019-05-03T19:37:46.557Z,43.00
2019-05-03T19:40:14.761Z,43.20
2019-05-03T19:42:44.735Z,44.00
2019-05-03T19:45:15.363Z,43.50
2019-05-03T19:47:44.772Z,43.60
2019-05-03T19:50:15.521Z,43.90
2019-05-03T19:53:16.082Z,44.10
2019-05-03T19:55:50.182Z,45.10
2019-05-03T19:58:15.629Z,45.20
2019-05-03T20:01:00.391Z,45.20
2019-05-03T20:03:45.697Z,45.10
2019-05-03T20:06:26.812Z,45.30
2019-05-03T20:08:59.167Z,45.60
2019-05-03T20:11:37.734Z,45.80
2019-05-03T20:14:06.449Z,45.80
2019-05-03T20:16:35.174Z,45.90
2019-05-03T20:19:17.247Z,46.00
2019-05-03T20:21:35.278Z,46.30
2019-05-03T20:24:05.590Z,46.50
2019-05-03T20:26:35.364Z,46.60
2019-05-03T20:29:05.011Z,46.80
2019-05-03T20:31:35.199Z,47.00
2019-05-03T20:34:05.372Z,47.20
2019-05-03T20:36:35.088Z,47.40
2019-05-03T20:39:05.509Z,47.60
2019-05-03T20:41:35.516Z,47.60
2019-05-03T20:44:19.714Z,47.60
2019-05-03T20:47:01.120Z,47.90
2019-05-03T20:49:29.513Z,48.20
2019-05-03T20:51:57.883Z,48.80
2019-05-03T20:54:26.873Z,48.00
2019-05-03T20:56:55.880Z,48.10
2019-05-03T20:59:25.309Z,48.30
2019-05-03T21:01:54.626Z,48.50
2019-05-03T21:04:24.715Z,48.80
2019-05-03T21:06:55.208Z,48.80
2019-05-03T21:09:23.884Z,49.20
2019-05-03T21:11:52.576Z,49.40
2019-05-03T21:14:21.254Z,49.40
2019-05-03T21:17:05.644Z,49.20
2019-05-03T21:19:51.878Z,49.20
2019-05-03T21:22:24.939Z,49.30
2019-05-03T21:25:09.413Z,49.40
2019-05-03T21:27:38.208Z,49.70
2019-05-03T21:30:07.353Z,50.50
2019-05-03T21:32:35.909Z,50.10
2019-05-03T21:35:05.430Z,50.30
2019-05-03T21:37:35.409Z,50.40
2019-05-03T21:40:05.234Z,50.90
2019-05-03T21:42:35.086Z,51.80
2019-05-03T21:45:05.243Z,51.50
2019-05-03T21:47:55.030Z,52.30
2019-05-03T21:50:24.956Z,52.50
2019-05-03T21:52:57.620Z,52.40
2019-05-03T21:55:26.243Z,51.90
2019-05-03T21:57:55.336Z,52.10
2019-05-03T22:00:26.723Z,52.70
2019-05-03T22:02:56.740Z,52.20
2019-05-03T22:05:26.485Z,51.70
2019-05-03T22:07:55.758Z,52.00
2019-05-03T22:10:25.562Z,52.00
2019-05-03T22:12:54.548Z,52.20
2019-05-03T22:15:37.014Z,52.10
2019-05-03T22:18:20.459Z,52.00
2019-05-03T22:20:55.842Z,51.80
2019-05-03T22:23:59.080Z,52.10
2019-05-03T22:26:45.860Z,52.40
2019-05-03T22:29:17.245Z,52.60
2019-05-03T22:31:45.878Z,52.50
2019-05-03T22:34:15.206Z,52.40
2019-05-03T22:36:44.524Z,52.30
2019-05-03T22:39:15.780Z,52.30
2019-05-03T22:41:44.490Z,52.20
2019-05-03T22:44:17.083Z,52.40
2019-05-03T22:46:46.561Z,52.80
2019-05-03T22:49:17.250Z,52.60
2019-05-03T22:51:46.125Z,53.00
2019-05-03T22:54:15.371Z,52.50
2019-05-03T22:56:44.802Z,53.10
2019-05-03T22:59:14.755Z,53.40
2019-05-03T23:01:45.502Z,53.30
2019-05-03T23:04:14.673Z,53.50
2019-05-03T23:06:46.833Z,53.50
2019-05-03T23:09:15.891Z,53.30
2019-05-03T23:11:45.113Z,53.40
2019-05-03T23:14:15.097Z,53.70
2019-05-03T23:16:44.819Z,53.80
2019-05-03T23:19:14.990Z,54.00
2019-05-03T23:21:54.467Z,54.40
2019-05-03T23:24:24.674Z,54.90
2019-05-03T23:26:53.584Z,54.90
2019-05-03T23:29:22.284Z,55.40
2019-05-03T23:31:51.254Z,55.20
2019-05-03T23:34:19.978Z,55.70
2019-05-03T23:36:48.624Z,55.80
2019-05-03T23:39:17.645Z,56.10
2019-05-03T23:41:45.985Z,55.80
2019-05-03T23:44:15.170Z,56.00
2019-05-03T23:46:54.630Z,56.10
2019-05-03T23:49:25.272Z,55.90
2019-05-03T23:51:56.462Z,55.70
2019-05-03T23:54:25.120Z,55.80
2019-05-03T23:56:54.722Z,55.70
2019-05-03T23:59:23.724Z,55.90
